sensor_id;sensor_type;location;lat;lon;timestamp;P1;durP1;ratioP1;P2;durP2;ratioP2
15502;SDS011;7853;52.186;5.948;2023-02-23T00:02:55;43.44;;;21.68;;
15502;SDS011;7853;52.186;5.948;2023-02-23T00:03:01;35.24;;;18.34;;
15502;SDS011;7853;52.186;5.948;2023-02-23T00:03:47;37.55;;;19.34;;
15502;SDS011;7853;52.186;5.948;2023-02-23T00:04:40;42.58;;;21.28;;
15502;SDS011;7853;52.186;5.948;2023-02-23T00:05:36;39.74;;;21.16;;
15502;SDS011;7853;52.186;5.948;2023-02-23T00:06:34;43.21;;;21.02;;
15502;SDS011;7853;52.186;5.948;2023-02-23T00:07:33;37.61;;;19.74;;
15502;SDS011;7853;52.186;5.948;2023-02-23T00:08:33;38.73;;;20.02;;
15502;SDS011;7853;52.186;5.948;2023-02-23T00:09:33;39.68;;;21.11;;
15502;SDS011;7853;52.186;5.948;2023-02-23T00:10:32;38.91;;;19.40;;
15502;SDS011;7853;52.186;5.948;2023-02-23T00:11:32;41.14;;;21.09;;
15502;SDS011;7853;52.186;5.948;2023-02-23T00:12:33;42.04;;;21.10;;
15502;SDS011;7853;52.186;5.948;2023-02-23T00:13:33;38.70;;;20.08;;
15502;SDS011;7853;52.186;5.948;2023-02-23T00:14:33;41.48;;;19.91;;
15502;SDS011;7853;52.186;5.948;2023-02-23T00:15:33;41.46;;;20.39;;
15502;SDS011;7853;52.186;5.948;2023-02-23T00:16:33;38.45;;;20.32;;
15502;SDS011;7853;52.186;5.948;2023-02-23T00:17:33;39.61;;;19.64;;
15502;SDS011;7853;52.186;5.948;2023-02-23T00:18:33;39.68;;;20.34;;
15502;SDS011;7853;52.186;5.948;2023-02-23T00:19:33;40.61;;;19.63;;
15502;SDS011;7853;52.186;5.948;2023-02-23T00:20:34;39.38;;;19.86;;
15502;SDS011;7853;52.186;5.948;2023-02-23T00:21:33;39.22;;;20.20;;
15502;SDS011;7853;52.186;5.948;2023-02-23T00:22:33;38.74;;;20.22;;
15502;SDS011;7853;52.186;5.948;2023-02-23T00:23:33;39.73;;;20.37;;
15502;SDS011;7853;52.186;5.948;2023-02-23T00:24:33;41.58;;;20.98;;
15502;SDS011;7853;52.186;5.948;2023-02-23T00:25:33;39.37;;;20.64;;
15502;SDS011;7853;52.186;5.948;2023-02-23T00:26:34;40.38;;;20.84;;
15502;SDS011;7853;52.186;5.948;2023-02-23T00:27:34;39.43;;;20.12;;
15502;SDS011;7853;52.186;5.948;2023-02-23T00:28:33;39.24;;;19.77;;
15502;SDS011;7853;52.186;5.948;2023-02-23T00:29:34;40.17;;;20.01;;
15502;SDS011;7853;52.186;5.948;2023-02-23T00:30:34;37.07;;;19.70;;
15502;SDS011;7853;52.186;5.948;2023-02-23T00:31:34;39.33;;;19.70;;
15502;SDS011;7853;52.186;5.948;2023-02-23T00:32:34;37.24;;;19.78;;
15502;SDS011;7853;52.186;5.948;2023-02-23T00:33:34;40.20;;;20.42;;
15502;SDS011;7853;52.186;5.948;2023-02-23T00:34:34;39.60;;;19.36;;
15502;SDS011;7853;52.186;5.948;2023-02-23T00:35:34;38.73;;;19.42;;
15502;SDS011;7853;52.186;5.948;2023-02-23T00:36:34;37.11;;;18.12;;
15502;SDS011;7853;52.186;5.948;2023-02-23T00:37:34;36.43;;;18.76;;
15502;SDS011;7853;52.186;5.948;2023-02-23T00:38:34;38.05;;;19.49;;
15502;SDS011;7853;52.186;5.948;2023-02-23T00:39:34;38.37;;;19.63;;
15502;SDS011;7853;52.186;5.948;2023-02-23T00:40:34;38.38;;;18.30;;
15502;SDS011;7853;52.186;5.948;2023-02-23T00:41:34;37.35;;;18.58;;
15502;SDS011;7853;52.186;5.948;2023-02-23T00:42:34;40.38;;;19.63;;
15502;SDS011;7853;52.186;5.948;2023-02-23T00:43:35;39.01;;;19.77;;
15502;SDS011;7853;52.186;5.948;2023-02-23T00:44:34;41.63;;;20.94;;
15502;SDS011;7853;52.186;5.948;2023-02-23T00:45:35;38.68;;;19.85;;
15502;SDS011;7853;52.186;5.948;2023-02-23T00:46:35;37.45;;;19.64;;
15502;SDS011;7853;52.186;5.948;2023-02-23T00:47:34;38.41;;;19.34;;
15502;SDS011;7853;52.186;5.948;2023-02-23T00:48:35;39.73;;;19.56;;
15502;SDS011;7853;52.186;5.948;2023-02-23T00:49:35;39.47;;;19.48;;
15502;SDS011;7853;52.186;5.948;2023-02-23T00:50:35;36.73;;;19.38;;
15502;SDS011;7853;52.186;5.948;2023-02-23T00:51:34;38.30;;;19.74;;
15502;SDS011;7853;52.186;5.948;2023-02-23T00:52:34;38.50;;;19.99;;
15502;SDS011;7853;52.186;5.948;2023-02-23T00:53:35;41.39;;;21.14;;
15502;SDS011;7853;52.186;5.948;2023-02-23T00:54:34;39.45;;;20.26;;
15502;SDS011;7853;52.186;5.948;2023-02-23T00:55:34;39.33;;;20.25;;
15502;SDS011;7853;52.186;5.948;2023-02-23T00:56:35;37.83;;;19.33;;
15502;SDS011;7853;52.186;5.948;2023-02-23T00:57:34;41.84;;;20.05;;
15502;SDS011;7853;52.186;5.948;2023-02-23T00:58:35;37.17;;;19.08;;
15502;SDS011;7853;52.186;5.948;2023-02-23T00:59:34;37.52;;;19.02;;
15502;SDS011;7853;52.186;5.948;2023-02-23T01:00:36;36.69;;;18.88;;
15502;SDS011;7853;52.186;5.948;2023-02-23T01:01:34;38.55;;;19.30;;
15502;SDS011;7853;52.186;5.948;2023-02-23T01:02:34;39.01;;;19.64;;
15502;SDS011;7853;52.186;5.948;2023-02-23T01:03:35;35.87;;;18.34;;
15502;SDS011;7853;52.186;5.948;2023-02-23T01:04:34;38.29;;;19.43;;
15502;SDS011;7853;52.186;5.948;2023-02-23T01:05:35;38.74;;;19.21;;
15502;SDS011;7853;52.186;5.948;2023-02-23T01:06:34;38.28;;;19.43;;
15502;SDS011;7853;52.186;5.948;2023-02-23T01:07:34;38.55;;;19.20;;
15502;SDS011;7853;52.186;5.948;2023-02-23T01:08:35;36.49;;;18.96;;
15502;SDS011;7853;52.186;5.948;2023-02-23T01:09:35;36.65;;;18.48;;
15502;SDS011;7853;52.186;5.948;2023-02-23T01:10:37;38.03;;;19.15;;
15502;SDS011;7853;52.186;5.948;2023-02-23T01:11:35;35.72;;;19.05;;
15502;SDS011;7853;52.186;5.948;2023-02-23T01:12:35;34.61;;;18.22;;
15502;SDS011;7853;52.186;5.948;2023-02-23T01:13:35;39.12;;;19.55;;
15502;SDS011;7853;52.186;5.948;2023-02-23T01:14:35;35.82;;;17.81;;
15502;SDS011;7853;52.186;5.948;2023-02-23T01:15:39;36.69;;;17.81;;
15502;SDS011;7853;52.186;5.948;2023-02-23T01:16:35;37.51;;;18.38;;
15502;SDS011;7853;52.186;5.948;2023-02-23T01:17:34;36.11;;;17.29;;
15502;SDS011;7853;52.186;5.948;2023-02-23T01:18:35;34.61;;;17.27;;
15502;SDS011;7853;52.186;5.948;2023-02-23T01:19:34;35.87;;;17.09;;
15502;SDS011;7853;52.186;5.948;2023-02-23T01:20:35;36.77;;;18.17;;
15502;SDS011;7853;52.186;5.948;2023-02-23T01:21:36;36.60;;;18.09;;
15502;SDS011;7853;52.186;5.948;2023-02-23T01:22:34;35.23;;;18.18;;
15502;SDS011;7853;52.186;5.948;2023-02-23T01:23:34;33.25;;;16.88;;
15502;SDS011;7853;52.186;5.948;2023-02-23T01:24:34;34.58;;;17.55;;
15502;SDS011;7853;52.186;5.948;2023-02-23T01:25:35;35.66;;;17.61;;
15502;SDS011;7853;52.186;5.948;2023-02-23T01:26:36;34.79;;;17.18;;
15502;SDS011;7853;52.186;5.948;2023-02-23T01:27:34;34.72;;;17.82;;
15502;SDS011;7853;52.186;5.948;2023-02-23T01:28:34;35.82;;;18.58;;
15502;SDS011;7853;52.186;5.948;2023-02-23T01:29:35;34.94;;;17.59;;
15502;SDS011;7853;52.186;5.948;2023-02-23T01:30:34;34.46;;;17.17;;
15502;SDS011;7853;52.186;5.948;2023-02-23T01:31:35;38.20;;;18.62;;
15502;SDS011;7853;52.186;5.948;2023-02-23T01:32:35;36.50;;;18.22;;
15502;SDS011;7853;52.186;5.948;2023-02-23T01:33:35;35.27;;;17.65;;
15502;SDS011;7853;52.186;5.948;2023-02-23T01:34:34;37.81;;;17.59;;
15502;SDS011;7853;52.186;5.948;2023-02-23T01:35:35;34.60;;;17.28;;
15502;SDS011;7853;52.186;5.948;2023-02-23T01:36:35;33.57;;;16.99;;
15502;SDS011;7853;52.186;5.948;2023-02-23T01:37:35;33.93;;;17.72;;
15502;SDS011;7853;52.186;5.948;2023-02-23T01:38:35;35.17;;;17.28;;
15502;SDS011;7853;52.186;5.948;2023-02-23T01:39:35;32.81;;;17.36;;
15502;SDS011;7853;52.186;5.948;2023-02-23T01:40:34;34.80;;;17.80;;
15502;SDS011;7853;52.186;5.948;2023-02-23T01:41:35;38.66;;;18.35;;
15502;SDS011;7853;52.186;5.948;2023-02-23T01:42:36;35.38;;;16.93;;
15502;SDS011;7853;52.186;5.948;2023-02-23T01:43:35;33.73;;;16.76;;
15502;SDS011;7853;52.186;5.948;2023-02-23T01:45:47;34.65;;;17.30;;
15502;SDS011;7853;52.186;5.948;2023-02-23T01:46:41;33.63;;;17.11;;
15502;SDS011;7853;52.186;5.948;2023-02-23T01:47:37;35.96;;;17.93;;
15502;SDS011;7853;52.186;5.948;2023-02-23T01:48:36;36.81;;;18.16;;
15502;SDS011;7853;52.186;5.948;2023-02-23T01:49:35;35.66;;;17.96;;
15502;SDS011;7853;52.186;5.948;2023-02-23T01:50:36;35.23;;;17.43;;
15502;SDS011;7853;52.186;5.948;2023-02-23T01:51:36;36.49;;;18.14;;
15502;SDS011;7853;52.186;5.948;2023-02-23T01:52:34;37.91;;;18.43;;
15502;SDS011;7853;52.186;5.948;2023-02-23T01:53:36;35.11;;;18.79;;
15502;SDS011;7853;52.186;5.948;2023-02-23T01:54:34;33.08;;;17.50;;
15502;SDS011;7853;52.186;5.948;2023-02-23T01:55:34;36.00;;;18.23;;
15502;SDS011;7853;52.186;5.948;2023-02-23T01:56:35;36.50;;;18.06;;
15502;SDS011;7853;52.186;5.948;2023-02-23T01:57:34;34.46;;;16.90;;
15502;SDS011;7853;52.186;5.948;2023-02-23T01:58:34;34.98;;;17.61;;
15502;SDS011;7853;52.186;5.948;2023-02-23T01:59:36;36.54;;;17.23;;
15502;SDS011;7853;52.186;5.948;2023-02-23T02:00:37;35.20;;;18.09;;
15502;SDS011;7853;52.186;5.948;2023-02-23T02:01:34;33.81;;;16.51;;
15502;SDS011;7853;52.186;5.948;2023-02-23T02:02:34;35.93;;;17.11;;
15502;SDS011;7853;52.186;5.948;2023-02-23T02:03:35;35.02;;;17.58;;
15502;SDS011;7853;52.186;5.948;2023-02-23T02:04:35;37.49;;;18.16;;
15502;SDS011;7853;52.186;5.948;2023-02-23T02:05:35;34.52;;;17.44;;
15502;SDS011;7853;52.186;5.948;2023-02-23T02:06:35;34.74;;;17.35;;
15502;SDS011;7853;52.186;5.948;2023-02-23T02:07:34;35.42;;;18.31;;
15502;SDS011;7853;52.186;5.948;2023-02-23T02:08:35;36.61;;;18.37;;
15502;SDS011;7853;52.186;5.948;2023-02-23T02:09:34;34.13;;;17.17;;
15502;SDS011;7853;52.186;5.948;2023-02-23T02:10:35;36.25;;;17.79;;
15502;SDS011;7853;52.186;5.948;2023-02-23T02:11:34;34.06;;;16.67;;
15502;SDS011;7853;52.186;5.948;2023-02-23T02:12:36;31.91;;;16.38;;
15502;SDS011;7853;52.186;5.948;2023-02-23T02:13:34;32.78;;;16.55;;
15502;SDS011;7853;52.186;5.948;2023-02-23T02:14:34;31.37;;;15.53;;
15502;SDS011;7853;52.186;5.948;2023-02-23T02:15:36;31.27;;;16.25;;
15502;SDS011;7853;52.186;5.948;2023-02-23T02:16:38;31.21;;;15.66;;
15502;SDS011;7853;52.186;5.948;2023-02-23T02:17:35;34.05;;;17.07;;
15502;SDS011;7853;52.186;5.948;2023-02-23T02:18:36;32.48;;;16.46;;
15502;SDS011;7853;52.186;5.948;2023-02-23T02:20:55;32.25;;;15.69;;
15502;SDS011;7853;52.186;5.948;2023-02-23T02:22:12;32.97;;;16.40;;
15502;SDS011;7853;52.186;5.948;2023-02-23T02:23:19;32.51;;;16.16;;
15502;SDS011;7853;52.186;5.948;2023-02-23T02:24:03;30.72;;;15.79;;
15502;SDS011;7853;52.186;5.948;2023-02-23T02:25:19;32.39;;;15.76;;
15502;SDS011;7853;52.186;5.948;2023-02-23T02:26:27;31.34;;;15.65;;
15502;SDS011;7853;52.186;5.948;2023-02-23T02:27:33;31.12;;;15.09;;
15502;SDS011;7853;52.186;5.948;2023-02-23T02:28:37;33.49;;;16.45;;
15502;SDS011;7853;52.186;5.948;2023-02-23T02:29:40;32.65;;;16.65;;
15502;SDS011;7853;52.186;5.948;2023-02-23T02:30:47;32.38;;;16.43;;
15502;SDS011;7853;52.186;5.948;2023-02-23T02:31:46;33.33;;;16.63;;
15502;SDS011;7853;52.186;5.948;2023-02-23T02:32:58;32.90;;;16.65;;
15502;SDS011;7853;52.186;5.948;2023-02-23T02:34:10;31.88;;;16.16;;
15502;SDS011;7853;52.186;5.948;2023-02-23T02:35:23;32.80;;;16.01;;
15502;SDS011;7853;52.186;5.948;2023-02-23T02:37:50;31.32;;;15.36;;
15502;SDS011;7853;52.186;5.948;2023-02-23T02:38:40;32.77;;;15.75;;
15502;SDS011;7853;52.186;5.948;2023-02-23T02:39:38;33.08;;;16.61;;
15502;SDS011;7853;52.186;5.948;2023-02-23T02:40:35;32.25;;;16.53;;
15502;SDS011;7853;52.186;5.948;2023-02-23T02:41:35;29.57;;;15.41;;
15502;SDS011;7853;52.186;5.948;2023-02-23T02:42:34;33.05;;;16.28;;
15502;SDS011;7853;52.186;5.948;2023-02-23T02:43:36;31.44;;;15.45;;
15502;SDS011;7853;52.186;5.948;2023-02-23T02:44:35;33.52;;;15.54;;
15502;SDS011;7853;52.186;5.948;2023-02-23T02:45:35;31.41;;;16.07;;
15502;SDS011;7853;52.186;5.948;2023-02-23T02:46:34;31.71;;;15.58;;
15502;SDS011;7853;52.186;5.948;2023-02-23T02:47:35;30.53;;;15.27;;
15502;SDS011;7853;52.186;5.948;2023-02-23T02:48:35;28.80;;;15.02;;
15502;SDS011;7853;52.186;5.948;2023-02-23T02:49:35;32.65;;;15.64;;
15502;SDS011;7853;52.186;5.948;2023-02-23T02:50:35;32.68;;;15.93;;
15502;SDS011;7853;52.186;5.948;2023-02-23T02:51:34;32.07;;;15.93;;
15502;SDS011;7853;52.186;5.948;2023-02-23T02:52:34;32.28;;;16.08;;
15502;SDS011;7853;52.186;5.948;2023-02-23T02:53:36;32.84;;;16.81;;
15502;SDS011;7853;52.186;5.948;2023-02-23T02:54:35;33.02;;;16.88;;
15502;SDS011;7853;52.186;5.948;2023-02-23T02:55:35;33.59;;;16.92;;
15502;SDS011;7853;52.186;5.948;2023-02-23T02:56:35;33.59;;;15.91;;
15502;SDS011;7853;52.186;5.948;2023-02-23T02:57:33;31.12;;;16.09;;
15502;SDS011;7853;52.186;5.948;2023-02-23T02:58:34;32.75;;;16.37;;
15502;SDS011;7853;52.186;5.948;2023-02-23T02:59:41;31.15;;;16.01;;
15502;SDS011;7853;52.186;5.948;2023-02-23T03:00:35;34.26;;;16.08;;
15502;SDS011;7853;52.186;5.948;2023-02-23T03:01:34;31.09;;;15.38;;
15502;SDS011;7853;52.186;5.948;2023-02-23T03:02:35;30.49;;;15.23;;
15502;SDS011;7853;52.186;5.948;2023-02-23T03:03:35;32.00;;;15.55;;
15502;SDS011;7853;52.186;5.948;2023-02-23T03:04:34;32.39;;;16.23;;
15502;SDS011;7853;52.186;5.948;2023-02-23T03:05:35;30.89;;;15.74;;
15502;SDS011;7853;52.186;5.948;2023-02-23T03:06:36;33.22;;;15.63;;
15502;SDS011;7853;52.186;5.948;2023-02-23T03:07:35;31.72;;;16.19;;
15502;SDS011;7853;52.186;5.948;2023-02-23T03:08:36;29.70;;;15.46;;
15502;SDS011;7853;52.186;5.948;2023-02-23T03:09:36;29.54;;;15.28;;
15502;SDS011;7853;52.186;5.948;2023-02-23T03:10:35;30.74;;;16.06;;
15502;SDS011;7853;52.186;5.948;2023-02-23T03:11:35;33.42;;;16.02;;
15502;SDS011;7853;52.186;5.948;2023-02-23T03:12:36;31.98;;;15.90;;
15502;SDS011;7853;52.186;5.948;2023-02-23T03:13:36;31.49;;;15.75;;
15502;SDS011;7853;52.186;5.948;2023-02-23T03:15:38;31.38;;;15.41;;
15502;SDS011;7853;52.186;5.948;2023-02-23T03:16:36;32.69;;;15.71;;
15502;SDS011;7853;52.186;5.948;2023-02-23T03:17:37;31.33;;;16.32;;
15502;SDS011;7853;52.186;5.948;2023-02-23T03:18:39;32.79;;;16.50;;
15502;SDS011;7853;52.186;5.948;2023-02-23T03:19:35;32.83;;;16.39;;
15502;SDS011;7853;52.186;5.948;2023-02-23T03:20:37;32.82;;;16.14;;
15502;SDS011;7853;52.186;5.948;2023-02-23T03:21:36;32.36;;;16.21;;
15502;SDS011;7853;52.186;5.948;2023-02-23T03:22:37;30.41;;;15.50;;
15502;SDS011;7853;52.186;5.948;2023-02-23T03:23:37;31.76;;;15.50;;
15502;SDS011;7853;52.186;5.948;2023-02-23T03:24:36;34.53;;;17.01;;
15502;SDS011;7853;52.186;5.948;2023-02-23T03:25:40;32.80;;;16.12;;
15502;SDS011;7853;52.186;5.948;2023-02-23T03:26:35;30.61;;;15.67;;
15502;SDS011;7853;52.186;5.948;2023-02-23T03:27:39;31.62;;;15.51;;
15502;SDS011;7853;52.186;5.948;2023-02-23T03:28:35;34.65;;;17.08;;
15502;SDS011;7853;52.186;5.948;2023-02-23T03:29:36;32.42;;;16.96;;
15502;SDS011;7853;52.186;5.948;2023-02-23T03:30:37;32.10;;;16.06;;
15502;SDS011;7853;52.186;5.948;2023-02-23T03:31:36;34.10;;;16.86;;
15502;SDS011;7853;52.186;5.948;2023-02-23T03:32:35;34.26;;;16.84;;
15502;SDS011;7853;52.186;5.948;2023-02-23T03:33:37;32.57;;;16.10;;
15502;SDS011;7853;52.186;5.948;2023-02-23T03:34:36;33.72;;;17.12;;
15502;SDS011;7853;52.186;5.948;2023-02-23T03:35:37;32.87;;;16.35;;
15502;SDS011;7853;52.186;5.948;2023-02-23T03:36:35;32.20;;;15.79;;
15502;SDS011;7853;52.186;5.948;2023-02-23T03:37:35;32.80;;;16.63;;
15502;SDS011;7853;52.186;5.948;2023-02-23T03:38:35;32.64;;;16.56;;
15502;SDS011;7853;52.186;5.948;2023-02-23T03:39:36;33.24;;;16.61;;
15502;SDS011;7853;52.186;5.948;2023-02-23T03:40:35;34.02;;;17.09;;
15502;SDS011;7853;52.186;5.948;2023-02-23T03:41:34;34.68;;;16.90;;
15502;SDS011;7853;52.186;5.948;2023-02-23T03:42:35;31.60;;;16.48;;
15502;SDS011;7853;52.186;5.948;2023-02-23T03:43:35;32.89;;;16.35;;
15502;SDS011;7853;52.186;5.948;2023-02-23T03:44:35;33.56;;;16.25;;
15502;SDS011;7853;52.186;5.948;2023-02-23T03:45:34;33.13;;;16.79;;
15502;SDS011;7853;52.186;5.948;2023-02-23T03:46:34;33.78;;;16.40;;
15502;SDS011;7853;52.186;5.948;2023-02-23T03:47:36;32.30;;;16.16;;
15502;SDS011;7853;52.186;5.948;2023-02-23T03:48:35;32.83;;;15.83;;
15502;SDS011;7853;52.186;5.948;2023-02-23T03:49:35;31.44;;;15.69;;
15502;SDS011;7853;52.186;5.948;2023-02-23T03:50:35;33.53;;;16.12;;
15502;SDS011;7853;52.186;5.948;2023-02-23T03:51:34;33.83;;;16.36;;
15502;SDS011;7853;52.186;5.948;2023-02-23T03:52:36;33.90;;;16.92;;
15502;SDS011;7853;52.186;5.948;2023-02-23T03:53:38;31.21;;;15.87;;
15502;SDS011;7853;52.186;5.948;2023-02-23T03:54:36;33.75;;;16.51;;
15502;SDS011;7853;52.186;5.948;2023-02-23T03:55:35;33.61;;;16.49;;
15502;SDS011;7853;52.186;5.948;2023-02-23T03:56:35;32.04;;;16.29;;
15502;SDS011;7853;52.186;5.948;2023-02-23T03:57:35;31.71;;;16.39;;
15502;SDS011;7853;52.186;5.948;2023-02-23T03:58:35;33.25;;;16.52;;
15502;SDS011;7853;52.186;5.948;2023-02-23T03:59:37;33.06;;;16.64;;
15502;SDS011;7853;52.186;5.948;2023-02-23T04:00:35;33.38;;;15.72;;
15502;SDS011;7853;52.186;5.948;2023-02-23T04:01:34;33.70;;;17.02;;
15502;SDS011;7853;52.186;5.948;2023-02-23T04:02:34;34.53;;;16.79;;
15502;SDS011;7853;52.186;5.948;2023-02-23T04:03:35;35.02;;;17.49;;
15502;SDS011;7853;52.186;5.948;2023-02-23T04:04:34;31.95;;;16.10;;
15502;SDS011;7853;52.186;5.948;2023-02-23T04:05:35;32.00;;;16.22;;
15502;SDS011;7853;52.186;5.948;2023-02-23T04:06:35;33.32;;;16.74;;
15502;SDS011;7853;52.186;5.948;2023-02-23T04:07:34;34.78;;;17.16;;
15502;SDS011;7853;52.186;5.948;2023-02-23T04:08:35;36.10;;;17.06;;
15502;SDS011;7853;52.186;5.948;2023-02-23T04:09:34;34.04;;;16.79;;
15502;SDS011;7853;52.186;5.948;2023-02-23T04:10:34;32.19;;;16.53;;
15502;SDS011;7853;52.186;5.948;2023-02-23T04:11:36;33.77;;;16.86;;
15502;SDS011;7853;52.186;5.948;2023-02-23T04:12:36;34.05;;;17.24;;
15502;SDS011;7853;52.186;5.948;2023-02-23T04:13:35;31.80;;;16.16;;
15502;SDS011;7853;52.186;5.948;2023-02-23T04:14:35;35.92;;;16.39;;
15502;SDS011;7853;52.186;5.948;2023-02-23T04:15:35;34.32;;;16.51;;
15502;SDS011;7853;52.186;5.948;2023-02-23T04:16:34;33.96;;;16.55;;
15502;SDS011;7853;52.186;5.948;2023-02-23T04:17:35;31.51;;;16.12;;
15502;SDS011;7853;52.186;5.948;2023-02-23T04:18:35;34.20;;;16.91;;
15502;SDS011;7853;52.186;5.948;2023-02-23T04:19:34;32.97;;;16.45;;
15502;SDS011;7853;52.186;5.948;2023-02-23T04:20:35;34.04;;;16.54;;
15502;SDS011;7853;52.186;5.948;2023-02-23T04:21:35;34.66;;;16.16;;
15502;SDS011;7853;52.186;5.948;2023-02-23T04:22:35;33.33;;;16.43;;
15502;SDS011;7853;52.186;5.948;2023-02-23T04:23:35;33.01;;;16.53;;
15502;SDS011;7853;52.186;5.948;2023-02-23T04:24:35;33.06;;;15.99;;
15502;SDS011;7853;52.186;5.948;2023-02-23T04:25:34;32.64;;;16.53;;
15502;SDS011;7853;52.186;5.948;2023-02-23T04:26:35;34.09;;;16.74;;
15502;SDS011;7853;52.186;5.948;2023-02-23T04:27:35;34.12;;;17.05;;
15502;SDS011;7853;52.186;5.948;2023-02-23T04:28:34;32.70;;;16.32;;
15502;SDS011;7853;52.186;5.948;2023-02-23T04:29:34;32.61;;;16.89;;
15502;SDS011;7853;52.186;5.948;2023-02-23T04:30:35;35.26;;;17.26;;
15502;SDS011;7853;52.186;5.948;2023-02-23T04:31:35;35.06;;;17.60;;
15502;SDS011;7853;52.186;5.948;2023-02-23T04:32:35;37.37;;;17.81;;
15502;SDS011;7853;52.186;5.948;2023-02-23T04:33:34;35.91;;;17.94;;
15502;SDS011;7853;52.186;5.948;2023-02-23T04:34:35;34.33;;;16.87;;
15502;SDS011;7853;52.186;5.948;2023-02-23T04:35:35;33.77;;;16.59;;
15502;SDS011;7853;52.186;5.948;2023-02-23T04:36:35;33.64;;;16.58;;
15502;SDS011;7853;52.186;5.948;2023-02-23T04:37:35;33.68;;;16.67;;
15502;SDS011;7853;52.186;5.948;2023-02-23T04:38:35;32.56;;;16.15;;
15502;SDS011;7853;52.186;5.948;2023-02-23T04:39:35;36.05;;;17.63;;
15502;SDS011;7853;52.186;5.948;2023-02-23T04:40:35;31.89;;;16.93;;
15502;SDS011;7853;52.186;5.948;2023-02-23T04:41:34;34.55;;;17.06;;
15502;SDS011;7853;52.186;5.948;2023-02-23T04:42:36;33.98;;;17.03;;
15502;SDS011;7853;52.186;5.948;2023-02-23T04:43:35;34.88;;;16.73;;
15502;SDS011;7853;52.186;5.948;2023-02-23T04:44:35;35.14;;;17.43;;
15502;SDS011;7853;52.186;5.948;2023-02-23T04:45:34;36.04;;;17.45;;
15502;SDS011;7853;52.186;5.948;2023-02-23T04:46:35;34.95;;;17.47;;
15502;SDS011;7853;52.186;5.948;2023-02-23T04:47:35;36.63;;;18.24;;
15502;SDS011;7853;52.186;5.948;2023-02-23T04:48:35;34.10;;;17.28;;
15502;SDS011;7853;52.186;5.948;2023-02-23T04:49:35;33.66;;;17.29;;
15502;SDS011;7853;52.186;5.948;2023-02-23T04:50:35;34.58;;;17.40;;
15502;SDS011;7853;52.186;5.948;2023-02-23T04:51:35;34.20;;;16.98;;
15502;SDS011;7853;52.186;5.948;2023-02-23T04:52:35;35.08;;;16.81;;
15502;SDS011;7853;52.186;5.948;2023-02-23T04:53:35;35.58;;;17.08;;
15502;SDS011;7853;52.186;5.948;2023-02-23T04:54:36;36.08;;;17.58;;
15502;SDS011;7853;52.186;5.948;2023-02-23T04:55:34;35.44;;;16.59;;
15502;SDS011;7853;52.186;5.948;2023-02-23T04:56:35;34.03;;;16.71;;
15502;SDS011;7853;52.186;5.948;2023-02-23T04:57:35;35.20;;;16.95;;
15502;SDS011;7853;52.186;5.948;2023-02-23T04:58:35;34.90;;;17.73;;
15502;SDS011;7853;52.186;5.948;2023-02-23T04:59:35;37.08;;;17.50;;
15502;SDS011;7853;52.186;5.948;2023-02-23T05:00:35;32.93;;;16.49;;
15502;SDS011;7853;52.186;5.948;2023-02-23T05:01:35;35.92;;;17.61;;
15502;SDS011;7853;52.186;5.948;2023-02-23T05:02:35;34.94;;;17.55;;
15502;SDS011;7853;52.186;5.948;2023-02-23T05:03:35;34.11;;;17.08;;
15502;SDS011;7853;52.186;5.948;2023-02-23T05:04:35;37.05;;;17.69;;
15502;SDS011;7853;52.186;5.948;2023-02-23T05:05:34;36.50;;;17.29;;
15502;SDS011;7853;52.186;5.948;2023-02-23T05:06:35;35.60;;;16.92;;
15502;SDS011;7853;52.186;5.948;2023-02-23T05:07:35;33.21;;;17.17;;
15502;SDS011;7853;52.186;5.948;2023-02-23T05:08:35;34.21;;;16.77;;
15502;SDS011;7853;52.186;5.948;2023-02-23T05:09:35;35.59;;;17.44;;
15502;SDS011;7853;52.186;5.948;2023-02-23T05:10:35;34.28;;;17.00;;
15502;SDS011;7853;52.186;5.948;2023-02-23T05:11:35;34.54;;;17.38;;
15502;SDS011;7853;52.186;5.948;2023-02-23T05:12:35;37.40;;;18.02;;
15502;SDS011;7853;52.186;5.948;2023-02-23T05:13:35;34.12;;;16.85;;
15502;SDS011;7853;52.186;5.948;2023-02-23T05:14:34;35.25;;;17.66;;
15502;SDS011;7853;52.186;5.948;2023-02-23T05:15:35;36.24;;;17.64;;
15502;SDS011;7853;52.186;5.948;2023-02-23T05:16:34;35.86;;;18.00;;
15502;SDS011;7853;52.186;5.948;2023-02-23T05:17:36;34.83;;;17.30;;
15502;SDS011;7853;52.186;5.948;2023-02-23T05:18:35;34.22;;;17.13;;
15502;SDS011;7853;52.186;5.948;2023-02-23T05:19:35;33.82;;;17.10;;
15502;SDS011;7853;52.186;5.948;2023-02-23T05:20:35;34.11;;;16.98;;
15502;SDS011;7853;52.186;5.948;2023-02-23T05:21:35;36.60;;;17.65;;
15502;SDS011;7853;52.186;5.948;2023-02-23T05:22:35;38.19;;;18.13;;
15502;SDS011;7853;52.186;5.948;2023-02-23T05:23:35;34.77;;;17.03;;
15502;SDS011;7853;52.186;5.948;2023-02-23T05:24:35;34.68;;;17.38;;
15502;SDS011;7853;52.186;5.948;2023-02-23T05:25:36;34.08;;;17.28;;
15502;SDS011;7853;52.186;5.948;2023-02-23T05:26:35;33.11;;;16.04;;
15502;SDS011;7853;52.186;5.948;2023-02-23T05:27:35;35.04;;;17.58;;
15502;SDS011;7853;52.186;5.948;2023-02-23T05:28:35;32.97;;;15.98;;
15502;SDS011;7853;52.186;5.948;2023-02-23T05:29:35;32.40;;;16.20;;
15502;SDS011;7853;52.186;5.948;2023-02-23T05:30:35;35.29;;;16.99;;
15502;SDS011;7853;52.186;5.948;2023-02-23T05:31:35;34.51;;;16.49;;
15502;SDS011;7853;52.186;5.948;2023-02-23T05:32:35;34.34;;;16.08;;
15502;SDS011;7853;52.186;5.948;2023-02-23T05:33:35;35.12;;;17.47;;
15502;SDS011;7853;52.186;5.948;2023-02-23T05:34:35;34.19;;;16.17;;
15502;SDS011;7853;52.186;5.948;2023-02-23T05:35:38;33.15;;;16.26;;
15502;SDS011;7853;52.186;5.948;2023-02-23T05:36:34;34.90;;;17.15;;
15502;SDS011;7853;52.186;5.948;2023-02-23T05:37:35;34.57;;;16.68;;
15502;SDS011;7853;52.186;5.948;2023-02-23T05:38:34;33.33;;;16.20;;
15502;SDS011;7853;52.186;5.948;2023-02-23T05:39:35;35.06;;;16.74;;
15502;SDS011;7853;52.186;5.948;2023-02-23T05:40:35;34.34;;;17.02;;
15502;SDS011;7853;52.186;5.948;2023-02-23T05:41:34;34.56;;;17.08;;
15502;SDS011;7853;52.186;5.948;2023-02-23T05:42:35;32.32;;;16.62;;
15502;SDS011;7853;52.186;5.948;2023-02-23T05:43:35;35.04;;;16.48;;
15502;SDS011;7853;52.186;5.948;2023-02-23T05:44:35;34.07;;;16.90;;
15502;SDS011;7853;52.186;5.948;2023-02-23T05:45:38;35.73;;;16.93;;
15502;SDS011;7853;52.186;5.948;2023-02-23T05:46:34;33.51;;;16.87;;
15502;SDS011;7853;52.186;5.948;2023-02-23T05:47:35;33.52;;;16.63;;
15502;SDS011;7853;52.186;5.948;2023-02-23T05:48:35;33.54;;;17.15;;
15502;SDS011;7853;52.186;5.948;2023-02-23T05:49:35;31.89;;;16.62;;
15502;SDS011;7853;52.186;5.948;2023-02-23T05:50:35;32.84;;;16.09;;
15502;SDS011;7853;52.186;5.948;2023-02-23T05:51:35;32.97;;;16.66;;
15502;SDS011;7853;52.186;5.948;2023-02-23T05:52:36;36.59;;;17.44;;
15502;SDS011;7853;52.186;5.948;2023-02-23T05:53:35;34.26;;;16.66;;
15502;SDS011;7853;52.186;5.948;2023-02-23T05:54:34;35.14;;;17.41;;
15502;SDS011;7853;52.186;5.948;2023-02-23T05:55:35;32.72;;;16.79;;
15502;SDS011;7853;52.186;5.948;2023-02-23T05:56:35;33.48;;;16.88;;
15502;SDS011;7853;52.186;5.948;2023-02-23T05:57:35;35.33;;;17.15;;
15502;SDS011;7853;52.186;5.948;2023-02-23T05:58:35;34.01;;;16.65;;
15502;SDS011;7853;52.186;5.948;2023-02-23T05:59:35;33.34;;;16.14;;
15502;SDS011;7853;52.186;5.948;2023-02-23T06:00:35;33.73;;;17.20;;
15502;SDS011;7853;52.186;5.948;2023-02-23T06:01:35;34.66;;;16.92;;
15502;SDS011;7853;52.186;5.948;2023-02-23T06:02:35;33.70;;;16.74;;